Gustavus, AK

1:47 AM AKST on February 19, 2018 (GMT -0900)
Gustavus

Weather History for PAGS - January, 2012

Change the Weather History Date:

Tuesday, January 17, 2012

  Actual Average Record
Temperature  
Mean Temperature 9 °F -  
Max Temperature 12 °F 33 °F 48 °F (1965)
Min Temperature 6 °F 26 °F -4 °F (1950)
Degree Days  
Heating Degree Days 56    
Moisture  
Dew Point -13 °F    
Average Humidity 34    
Maximum Humidity 48    
Minimum Humidity 29    
Precipitation  
Precipitation 0.00 in - - ()
Sea Level Pressure  
Sea Level Pressure 30.45 in    
Wind  
Wind Speed 12 mph (North)    
Max Wind Speed 18 mph    
Max Gust Speed 28 mph    
Visibility 10 miles    
Events      
Averages and records for this station are not official NWS values.
T = Trace of Precipitation, MM = Missing Value Source: NWS Daily Summary

Daily Weather History Graph

Daily Weather History Graph

Search for Another Location

Airport or City:

Trip Planner

Search our weather history database for the weather conditions in past years. The results will help you decide how hot, cold, wet, or windy it might be!

Date:

Astronomy

Jan. 17, 2012 Rise Set
Actual Time 8:36 AM AKST 3:49 PM AKST
Civil Twilight 7:47 AM AKST 4:38 PM AKST
Nautical Twilight 6:57 AM AKST 5:29 PM AKST
Astronomical Twilight 6:09 AM AKST 6:16 PM AKST
Moon 2:58 AM AKST (1/17) 10:51 AM AKST (1/17)
Length of Visible Light 8h 50m
Length of Day
7h 13m
Waning Crescent, 33% of the Moon is Illuminated
Jan 17
Waning Crescent
Jan 22
New
Jan 30
First Quarter
Feb 7
Full
Feb 14
Last Quarter

Hourly Weather History & Observations

Time (AKST) Temp. Windchill Dew Point Humidity Pressure Visibility Wind Dir Wind Speed Gust Speed Precip Events Conditions
12:36 AM 8.6 °F -7.0 °F -16.6 °F 31% 30.56 in 10.0 mi North 12.7 mph 20.7 mph N/A   Clear
12:56 AM 8.6 °F -9.5 °F -16.6 °F 31% 30.56 in 10.0 mi NNE 17.3 mph 26.5 mph N/A   Clear
1:16 AM 8.6 °F -8.9 °F -16.6 °F 31% 30.55 in 10.0 mi NNE 16.1 mph 24.2 mph N/A   Clear
1:36 AM 10.4 °F -7.7 °F -16.6 °F 29% 30.55 in 10.0 mi NNE 18.4 mph 27.6 mph N/A   Clear
1:56 AM 8.6 °F -7.0 °F -16.6 °F 31% 30.55 in 10.0 mi NNE 12.7 mph 21.9 mph N/A   Clear
2:16 AM 8.6 °F -9.5 °F -16.6 °F 31% 30.55 in 10.0 mi NNE 17.3 mph 23.0 mph N/A   Clear
3:36 AM 8.6 °F -8.3 °F -16.6 °F 31% 30.54 in 10.0 mi NNE 15.0 mph 26.5 mph N/A   Clear
3:56 AM 8.6 °F -7.0 °F -16.6 °F 31% 30.53 in 10.0 mi NNE 12.7 mph 21.9 mph N/A   Clear
4:16 AM 8.6 °F -7.7 °F -16.6 °F 31% 30.52 in 10.0 mi NNE 13.8 mph 21.9 mph N/A   Clear
4:36 AM 8.6 °F -8.9 °F -16.6 °F 31% 30.52 in 10.0 mi NNE 16.1 mph 23.0 mph N/A   Clear
4:56 AM 8.6 °F -6.3 °F -14.8 °F 34% 30.51 in 10.0 mi NNE 11.5 mph 23.0 mph N/A   Clear
5:16 AM 8.6 °F -7.7 °F -14.8 °F 34% 30.51 in 10.0 mi NNE 13.8 mph 23.0 mph N/A   Clear
5:36 AM 8.6 °F -9.5 °F -14.8 °F 34% 30.50 in 10.0 mi North 17.3 mph 25.3 mph N/A   Clear
5:56 AM 8.6 °F -7.7 °F -14.8 °F 34% 30.50 in 10.0 mi North 13.8 mph 27.6 mph N/A   Clear
6:16 AM 8.6 °F -5.5 °F -14.8 °F 34% 30.50 in 10.0 mi North 10.4 mph 24.2 mph N/A   Clear
6:36 AM 8.6 °F -8.3 °F -14.8 °F 34% 30.50 in 10.0 mi North 15.0 mph 19.6 mph N/A   Clear
6:56 AM 8.6 °F -6.3 °F -14.8 °F 34% 30.50 in 10.0 mi North 11.5 mph 25.3 mph N/A   Clear
7:16 AM 8.6 °F -5.5 °F -14.8 °F 34% 30.49 in 10.0 mi North 10.4 mph 20.7 mph N/A   Clear
7:36 AM 8.6 °F -10.0 °F -14.8 °F 34% 30.49 in 10.0 mi North 18.4 mph 24.2 mph N/A   Clear
7:56 AM 8.6 °F -8.9 °F -16.6 °F 31% 30.48 in 10.0 mi North 16.1 mph 23.0 mph N/A   Clear
8:16 AM 8.6 °F -8.3 °F -16.6 °F 31% 30.49 in 10.0 mi NE 15.0 mph 25.3 mph N/A   Clear
8:36 AM 8.6 °F -7.7 °F -16.6 °F 31% 30.49 in 10.0 mi NNE 13.8 mph 23.0 mph N/A   Clear
8:56 AM 8.6 °F -5.5 °F -14.8 °F 34% 30.48 in 10.0 mi NNE 10.4 mph 18.4 mph N/A   Clear
9:16 AM 10.4 °F -3.3 °F -14.8 °F 31% 30.49 in 10.0 mi North 10.4 mph 18.4 mph N/A   Clear
9:36 AM 10.4 °F -1.5 °F -14.8 °F 31% 30.48 in 10.0 mi North 8.1 mph - N/A   Clear
9:56 AM 10.4 °F -2.4 °F -14.8 °F 31% 30.48 in 10.0 mi NNE 9.2 mph 16.1 mph N/A   Clear
10:16 AM 10.4 °F -1.5 °F -14.8 °F 31% 30.47 in 10.0 mi NE 8.1 mph - N/A   Clear
10:36 AM 10.4 °F -2.4 °F -14.8 °F 31% 30.48 in 10.0 mi NNE 9.2 mph 16.1 mph N/A   Clear
10:56 AM 12.2 °F 0.7 °F -14.8 °F 29% 30.48 in 10.0 mi North 8.1 mph - N/A   Clear
11:16 AM 12.2 °F -1.8 °F -14.8 °F 29% 30.48 in 10.0 mi North 11.5 mph 18.4 mph N/A   Clear
11:36 AM 12.2 °F -0.2 °F -14.8 °F 29% 30.47 in 10.0 mi NNE 9.2 mph - N/A   Clear
11:56 AM 12.2 °F -1.0 °F -14.8 °F 29% 30.47 in 10.0 mi NNE 10.4 mph - N/A   Clear
12:16 PM 12.2 °F -3.1 °F -13.0 °F 32% 30.46 in 10.0 mi NNE 13.8 mph 17.3 mph N/A   Clear
12:36 PM 12.2 °F -1.0 °F -11.2 °F 34% 30.46 in 10.0 mi NNE 10.4 mph 20.7 mph N/A   Clear
12:56 PM 12.2 °F -2.5 °F -11.2 °F 34% 30.45 in 10.0 mi NE 12.7 mph - N/A   Clear
1:16 PM 12.2 °F -1.0 °F -11.2 °F 34% 30.45 in 10.0 mi NNE 10.4 mph 18.4 mph N/A   Clear
1:36 PM 12.2 °F -1.0 °F -11.2 °F 34% 30.45 in 10.0 mi NNE 10.4 mph 17.3 mph N/A   Clear
1:56 PM 12.2 °F -0.2 °F -11.2 °F 34% 30.44 in 10.0 mi NNE 9.2 mph 17.3 mph N/A   Clear
2:16 PM 12.2 °F -3.7 °F -13.0 °F 32% 30.44 in 10.0 mi NE 15.0 mph 23.0 mph N/A   Clear
2:36 PM 12.2 °F -1.0 °F -13.0 °F 32% 30.44 in 10.0 mi North 10.4 mph 23.0 mph N/A   Clear
2:56 PM 12.2 °F -3.7 °F -13.0 °F 32% 30.43 in 10.0 mi North 15.0 mph 24.2 mph N/A   Clear
3:16 PM 12.2 °F -3.1 °F -13.0 °F 32% 30.43 in 10.0 mi North 13.8 mph 23.0 mph N/A   Clear
3:36 PM 12.2 °F -3.1 °F -13.0 °F 32% 30.43 in 10.0 mi NNE 13.8 mph 21.9 mph N/A   Clear
3:56 PM 12.2 °F -3.1 °F -13.0 °F 32% 30.43 in 10.0 mi North 13.8 mph - N/A   Clear
4:16 PM 12.2 °F -1.8 °F -13.0 °F 32% 30.43 in 10.0 mi NNE 11.5 mph 19.6 mph N/A   Clear
4:36 PM 12.2 °F -2.5 °F -13.0 °F 32% 30.42 in 10.0 mi NNE 12.7 mph 18.4 mph N/A   Clear
4:56 PM 12.2 °F -0.2 °F -13.0 °F 32% 30.42 in 10.0 mi NNE 9.2 mph 18.4 mph N/A   Clear
5:16 PM 12.2 °F -3.1 °F -13.0 °F 32% 30.42 in 10.0 mi NE 13.8 mph 19.6 mph N/A   Clear
5:36 PM 12.2 °F -1.0 °F -13.0 °F 32% 30.41 in 10.0 mi NNE 10.4 mph 19.6 mph N/A   Clear
5:56 PM 12.2 °F -3.1 °F -13.0 °F 32% 30.41 in 10.0 mi NNE 13.8 mph 20.7 mph N/A   Clear
6:16 PM 12.2 °F -0.2 °F -13.0 °F 32% 30.40 in 10.0 mi NNE 9.2 mph 16.1 mph N/A   Clear
6:36 PM 12.2 °F 0.7 °F -11.2 °F 34% 30.39 in 10.0 mi North 8.1 mph - N/A   Clear
6:56 PM 12.2 °F 0.7 °F -11.2 °F 34% 30.39 in 10.0 mi North 8.1 mph - N/A   Clear
7:16 PM 12.2 °F 1.7 °F -11.2 °F 34% 30.38 in 10.0 mi NNE 6.9 mph - N/A   Clear
7:36 PM 12.2 °F 2.9 °F -11.2 °F 34% 30.38 in 10.0 mi North 5.8 mph - N/A   Clear
7:56 PM 12.2 °F 2.9 °F -11.2 °F 34% 30.38 in 10.0 mi NW 5.8 mph - N/A   Clear
8:16 PM 10.4 °F 2.2 °F -11.2 °F 37% 30.38 in 10.0 mi NW 4.6 mph - N/A   Clear
8:36 PM 10.4 °F - -11.2 °F 37% 30.37 in 10.0 mi Calm Calm - N/A   Clear
8:56 PM 8.6 °F 2.0 °F -11.2 °F 40% 30.37 in 10.0 mi WNW 3.5 mph - N/A   Clear
9:16 PM 8.6 °F -3.7 °F -9.4 °F 44% 30.36 in 10.0 mi NW 8.1 mph - N/A   Clear
9:36 PM 6.8 °F -0.1 °F -9.4 °F 48% 30.36 in 10.0 mi WNW 3.5 mph - N/A   Clear
9:56 PM 6.8 °F -3.5 °F -11.2 °F 44% 30.35 in 10.0 mi NNW 5.8 mph - N/A   Clear
10:16 PM 10.4 °F 0.8 °F -7.6 °F 44% 30.36 in 10.0 mi NW 5.8 mph - N/A   Clear
10:36 PM 10.4 °F -1.5 °F -9.4 °F 41% 30.36 in 10.0 mi NW 8.1 mph - N/A   Clear
10:56 PM 8.6 °F -2.6 °F -9.4 °F 44% 30.36 in 10.0 mi NNW 6.9 mph - N/A   Clear
11:16 PM 10.4 °F -0.4 °F -7.6 °F 44% 30.35 in 10.0 mi North 6.9 mph - N/A   Clear
11:36 PM 12.2 °F 1.7 °F -9.4 °F 38% 30.36 in 10.0 mi North 6.9 mph - N/A   Clear
11:56 PM 14.0 °F 5.1 °F -9.4 °F 35% 30.35 in 10.0 mi North 5.8 mph - N/A   Clear